首页
METAR-TAF:

METAR-TAF

机场 :

青森機場

青森, 日本

纬度: 40-44N, 经度: 140-42E, 海拔: 199米

当前天气观测

该预报发布于17分钟前的06:10 UTC
风速3节,风向东转东北,在北转东北之间变化
温度 20°C
湿度 100%
气压 1010 hPa
能見度: 1200
多云层高于100英尺
多云层高于200英尺
碎片雾, 轻雾

METAR: RJSA 180610Z 06003KT 030V100 1200 R24/1000VP1800D BCFG BR BKN001 BKN002 20/20 Q1010 RMK 5ST001 7ST002 A2985

时间: 15:27 (06:27 UTC)

预报

该预报发布于1小时和22分钟前的05:05 UTC
预报有效从18日的 06点(UTC)到 19日的 12点(UTC)
风速5节,风向东北
能見度: 3000
少量云层高于200英尺
多云层高于600英尺
多云层高于1500英尺
轻雾
短暂存在
从 18日的 06点(UTC)到 18日的 12点(UTC)
能見度: 0700
少量云层高于100英尺
多云层高于200英尺
多云层高于300英尺
短暂存在
从 18日的 12点(UTC)到 19日的 00点(UTC)
能見度: 0300
层高于100英尺
小阵雨, 雾
成为
从 19日的 00点(UTC)到 19日的 03点(UTC)
能见度10公里或以上
少量云层高于2000英尺
散云层高于3000英尺
短暂存在
从 19日的 09点(UTC)到 19日的 12点(UTC)
能見度: 1500
少量云层高于100英尺
多云层高于300英尺
多云层高于500英尺
轻雾

TAF: RJSA 180505Z 1806/1912 05005KT 3000 BR FEW002 BKN006 BKN015 TEMPO 1806/1812 0700 FG FEW001 BKN002 BKN003 TEMPO 1812/1900 0300 -SHRA FG VV001 BECMG 1900/1903 9999 NSW FEW020 SCT030 TEMPO 1909/1912 1500 BR FEW001 BKN003 BKN005

超过4000个机场的气象观测和天气预报(METAR&TAF报告)。

可查询的气象台以黄色和红色小点在地图上表示。

将鼠标移到小点上方,可查看气象台名称。

然后点击查看天气观测和预报。

如需切换地图:点击带黑十字的绿色按钮放大地图;点击带横线的绿色按钮缩小地图;或者点击绿色箭头查看邻近地区的地图。


METAR-TAF: